sim
Sign-in with your pilot id or email,
or register
Callsign
Passwort

Schedule Details

Flight Number: EWG7527 (1)
Departure: Fuerteventura Airport (GCFV) at 16:05
Arrival: Hamburg Airport (EDDH) at 21:05
Route: Eurowings Passenger Schedule. Enter filed route here before submitting Pirep.

Weather Information
Getting current METAR information for GCFV 211600Z 06005KT 030V110 CAVOK 20/14 Q1020
Getting current METAR information for EDDH 211550Z 28008KT 2800 -RADZ BR FEW004 BKN005 09/08 Q1023 TEMPO 3000 BKN004

Schedule Frequency

Route Map